sensor_id;sensor_type;location;lat;lon;timestamp;temperature;humidity
8643;DHT22;4359;49.358;11.256;2023-05-07T00:00:26;8.70;99.90
8643;DHT22;4359;49.358;11.256;2023-05-07T00:02:52;8.70;99.90
8643;DHT22;4359;49.358;11.256;2023-05-07T00:05:18;8.70;99.90
8643;DHT22;4359;49.358;11.256;2023-05-07T00:07:44;8.60;99.90
8643;DHT22;4359;49.358;11.256;2023-05-07T00:10:10;8.60;99.90
8643;DHT22;4359;49.358;11.256;2023-05-07T00:12:35;8.60;99.90
8643;DHT22;4359;49.358;11.256;2023-05-07T00:15:05;8.60;99.90
8643;DHT22;4359;49.358;11.256;2023-05-07T00:17:32;8.60;99.90
8643;DHT22;4359;49.358;11.256;2023-05-07T00:19:58;8.70;99.90
8643;DHT22;4359;49.358;11.256;2023-05-07T00:22:24;8.70;99.90
8643;DHT22;4359;49.358;11.256;2023-05-07T00:24:49;8.80;99.90
8643;DHT22;4359;49.358;11.256;2023-05-07T00:27:15;8.90;99.90
8643;DHT22;4359;49.358;11.256;2023-05-07T00:29:41;8.90;99.90
8643;DHT22;4359;49.358;11.256;2023-05-07T00:32:07;8.90;99.90
8643;DHT22;4359;49.358;11.256;2023-05-07T00:34:33;8.90;99.90
8643;DHT22;4359;49.358;11.256;2023-05-07T00:36:58;9.00;99.90
8643;DHT22;4359;49.358;11.256;2023-05-07T00:39:24;9.00;99.90
8643;DHT22;4359;49.358;11.256;2023-05-07T00:41:50;9.10;99.90
8643;DHT22;4359;49.358;11.256;2023-05-07T00:44:16;9.10;99.90
8643;DHT22;4359;49.358;11.256;2023-05-07T00:46:43;9.10;99.90
8643;DHT22;4359;49.358;11.256;2023-05-07T00:49:10;9.20;99.90
8643;DHT22;4359;49.358;11.256;2023-05-07T00:51:36;9.20;99.90
8643;DHT22;4359;49.358;11.256;2023-05-07T00:54:03;9.20;99.90
8643;DHT22;4359;49.358;11.256;2023-05-07T00:56:28;9.20;99.90
8643;DHT22;4359;49.358;11.256;2023-05-07T00:58:54;9.30;99.90
8643;DHT22;4359;49.358;11.256;2023-05-07T01:01:20;9.30;99.90
8643;DHT22;4359;49.358;11.256;2023-05-07T01:03:46;9.30;99.90
8643;DHT22;4359;49.358;11.256;2023-05-07T01:06:13;9.30;99.90
8643;DHT22;4359;49.358;11.256;2023-05-07T01:08:42;9.40;99.90
8643;DHT22;4359;49.358;11.256;2023-05-07T01:11:09;9.40;99.90
8643;DHT22;4359;49.358;11.256;2023-05-07T01:13:36;9.40;99.90
8643;DHT22;4359;49.358;11.256;2023-05-07T01:16:03;9.40;99.90
8643;DHT22;4359;49.358;11.256;2023-05-07T01:18:29;9.50;99.90
8643;DHT22;4359;49.358;11.256;2023-05-07T01:20:58;9.50;99.90
8643;DHT22;4359;49.358;11.256;2023-05-07T01:23:25;9.50;99.90
8643;DHT22;4359;49.358;11.256;2023-05-07T01:25:54;9.50;99.90
8643;DHT22;4359;49.358;11.256;2023-05-07T01:28:20;9.50;99.90
8643;DHT22;4359;49.358;11.256;2023-05-07T01:30:49;9.60;99.90
8643;DHT22;4359;49.358;11.256;2023-05-07T01:33:20;9.60;99.90
8643;DHT22;4359;49.358;11.256;2023-05-07T01:35:50;9.70;99.90
8643;DHT22;4359;49.358;11.256;2023-05-07T01:38:17;9.80;99.90
8643;DHT22;4359;49.358;11.256;2023-05-07T01:40:43;9.90;99.90
8643;DHT22;4359;49.358;11.256;2023-05-07T01:43:09;10.20;99.90
8643;DHT22;4359;49.358;11.256;2023-05-07T01:45:35;10.40;99.90
8643;DHT22;4359;49.358;11.256;2023-05-07T01:48:02;10.50;99.90
8643;DHT22;4359;49.358;11.256;2023-05-07T01:50:29;10.60;99.90
8643;DHT22;4359;49.358;11.256;2023-05-07T01:52:56;10.80;99.90
8643;DHT22;4359;49.358;11.256;2023-05-07T01:55:21;11.00;99.90
8643;DHT22;4359;49.358;11.256;2023-05-07T01:57:47;11.20;99.90
8643;DHT22;4359;49.358;11.256;2023-05-07T02:00:13;11.20;99.90
8643;DHT22;4359;49.358;11.256;2023-05-07T02:02:38;11.30;99.90
8643;DHT22;4359;49.358;11.256;2023-05-07T02:05:04;11.30;99.90
8643;DHT22;4359;49.358;11.256;2023-05-07T02:07:30;11.40;99.90
8643;DHT22;4359;49.358;11.256;2023-05-07T02:09:56;11.50;99.90
8643;DHT22;4359;49.358;11.256;2023-05-07T02:12:22;11.50;99.90
8643;DHT22;4359;49.358;11.256;2023-05-07T02:14:48;11.60;99.90
8643;DHT22;4359;49.358;11.256;2023-05-07T02:17:14;11.70;99.90
8643;DHT22;4359;49.358;11.256;2023-05-07T02:19:40;11.70;99.90
8643;DHT22;4359;49.358;11.256;2023-05-07T02:22:06;11.90;99.90
8643;DHT22;4359;49.358;11.256;2023-05-07T02:24:31;12.10;99.90
8643;DHT22;4359;49.358;11.256;2023-05-07T02:26:57;12.10;99.90
8643;DHT22;4359;49.358;11.256;2023-05-07T02:29:23;12.10;99.90
8643;DHT22;4359;49.358;11.256;2023-05-07T02:31:48;12.20;99.90
8643;DHT22;4359;49.358;11.256;2023-05-07T02:34:18;12.30;99.90
8643;DHT22;4359;49.358;11.256;2023-05-07T02:36:44;12.30;99.90
8643;DHT22;4359;49.358;11.256;2023-05-07T02:39:11;12.40;99.90
8643;DHT22;4359;49.358;11.256;2023-05-07T02:41:37;12.30;99.90
8643;DHT22;4359;49.358;11.256;2023-05-07T02:44:02;12.20;99.90
8643;DHT22;4359;49.358;11.256;2023-05-07T02:46:28;12.20;99.90
8643;DHT22;4359;49.358;11.256;2023-05-07T02:48:54;12.20;99.90
8643;DHT22;4359;49.358;11.256;2023-05-07T02:51:21;12.10;99.90
8643;DHT22;4359;49.358;11.256;2023-05-07T02:53:47;12.10;99.90
8643;DHT22;4359;49.358;11.256;2023-05-07T02:56:12;12.00;99.90
8643;DHT22;4359;49.358;11.256;2023-05-07T02:58:38;12.00;99.90
8643;DHT22;4359;49.358;11.256;2023-05-07T03:01:10;12.00;99.90
8643;DHT22;4359;49.358;11.256;2023-05-07T03:03:35;12.00;99.90
8643;DHT22;4359;49.358;11.256;2023-05-07T03:06:01;12.10;99.90
8643;DHT22;4359;49.358;11.256;2023-05-07T03:08:27;12.10;99.90
8643;DHT22;4359;49.358;11.256;2023-05-07T03:10:53;12.10;99.90
8643;DHT22;4359;49.358;11.256;2023-05-07T03:13:18;12.20;99.90
8643;DHT22;4359;49.358;11.256;2023-05-07T03:15:44;12.10;99.90
8643;DHT22;4359;49.358;11.256;2023-05-07T03:18:10;12.20;99.90
8643;DHT22;4359;49.358;11.256;2023-05-07T03:20:36;12.10;99.90
8643;DHT22;4359;49.358;11.256;2023-05-07T03:23:02;12.00;99.90
8643;DHT22;4359;49.358;11.256;2023-05-07T03:25:28;11.90;99.90
8643;DHT22;4359;49.358;11.256;2023-05-07T03:27:55;11.90;99.90
8643;DHT22;4359;49.358;11.256;2023-05-07T03:30:21;11.90;99.90
8643;DHT22;4359;49.358;11.256;2023-05-07T03:32:47;11.90;99.90
8643;DHT22;4359;49.358;11.256;2023-05-07T03:35:12;11.90;99.90
8643;DHT22;4359;49.358;11.256;2023-05-07T03:37:38;11.90;99.90
8643;DHT22;4359;49.358;11.256;2023-05-07T03:40:05;11.90;99.90
8643;DHT22;4359;49.358;11.256;2023-05-07T03:42:31;11.90;99.90
8643;DHT22;4359;49.358;11.256;2023-05-07T03:44:57;12.00;99.90
8643;DHT22;4359;49.358;11.256;2023-05-07T03:47:22;12.00;99.90
8643;DHT22;4359;49.358;11.256;2023-05-07T03:49:48;11.90;99.90
8643;DHT22;4359;49.358;11.256;2023-05-07T03:52:14;11.90;99.90
8643;DHT22;4359;49.358;11.256;2023-05-07T03:54:40;11.80;99.90
8643;DHT22;4359;49.358;11.256;2023-05-07T03:57:06;11.80;99.90
8643;DHT22;4359;49.358;11.256;2023-05-07T03:59:32;11.80;99.90
8643;DHT22;4359;49.358;11.256;2023-05-07T04:01:58;11.80;99.90
8643;DHT22;4359;49.358;11.256;2023-05-07T04:04:23;11.80;99.90
8643;DHT22;4359;49.358;11.256;2023-05-07T04:06:49;11.80;99.90
8643;DHT22;4359;49.358;11.256;2023-05-07T04:09:15;11.80;99.90
8643;DHT22;4359;49.358;11.256;2023-05-07T04:11:40;11.80;99.90
8643;DHT22;4359;49.358;11.256;2023-05-07T04:14:06;11.80;99.90
8643;DHT22;4359;49.358;11.256;2023-05-07T04:16:32;11.70;99.90
8643;DHT22;4359;49.358;11.256;2023-05-07T04:18:57;11.70;99.90
8643;DHT22;4359;49.358;11.256;2023-05-07T04:21:23;11.70;99.90
8643;DHT22;4359;49.358;11.256;2023-05-07T04:23:49;11.60;99.90
8643;DHT22;4359;49.358;11.256;2023-05-07T04:26:15;11.60;99.90
8643;DHT22;4359;49.358;11.256;2023-05-07T04:28:41;11.60;99.90
8643;DHT22;4359;49.358;11.256;2023-05-07T04:31:07;11.60;99.90
8643;DHT22;4359;49.358;11.256;2023-05-07T04:33:33;11.70;99.90
8643;DHT22;4359;49.358;11.256;2023-05-07T04:36:01;11.80;99.90
8643;DHT22;4359;49.358;11.256;2023-05-07T04:38:29;11.90;99.90
8643;DHT22;4359;49.358;11.256;2023-05-07T04:40:55;12.00;99.90
8643;DHT22;4359;49.358;11.256;2023-05-07T04:43:21;12.10;99.90
8643;DHT22;4359;49.358;11.256;2023-05-07T04:45:47;12.10;99.90
8643;DHT22;4359;49.358;11.256;2023-05-07T04:48:14;12.20;99.90
8643;DHT22;4359;49.358;11.256;2023-05-07T04:50:40;12.30;99.90
8643;DHT22;4359;49.358;11.256;2023-05-07T04:53:06;12.30;99.90
8643;DHT22;4359;49.358;11.256;2023-05-07T04:55:32;12.50;99.90
8643;DHT22;4359;49.358;11.256;2023-05-07T04:57:57;12.60;99.90
8643;DHT22;4359;49.358;11.256;2023-05-07T05:00:23;12.60;99.90
8643;DHT22;4359;49.358;11.256;2023-05-07T05:02:49;12.70;99.90
8643;DHT22;4359;49.358;11.256;2023-05-07T05:05:14;12.70;99.90
8643;DHT22;4359;49.358;11.256;2023-05-07T05:07:40;12.80;99.90
8643;DHT22;4359;49.358;11.256;2023-05-07T05:10:06;12.80;99.90
8643;DHT22;4359;49.358;11.256;2023-05-07T05:12:32;12.90;99.90
8643;DHT22;4359;49.358;11.256;2023-05-07T05:14:57;13.00;99.90
8643;DHT22;4359;49.358;11.256;2023-05-07T05:17:23;13.10;99.90
8643;DHT22;4359;49.358;11.256;2023-05-07T05:19:48;13.20;99.90
8643;DHT22;4359;49.358;11.256;2023-05-07T05:22:14;13.20;99.90
8643;DHT22;4359;49.358;11.256;2023-05-07T05:24:40;13.40;99.90
8643;DHT22;4359;49.358;11.256;2023-05-07T05:27:06;13.50;99.90
8643;DHT22;4359;49.358;11.256;2023-05-07T05:29:31;13.60;99.90
8643;DHT22;4359;49.358;11.256;2023-05-07T05:31:57;13.60;99.90
8643;DHT22;4359;49.358;11.256;2023-05-07T05:34:23;13.80;99.90
8643;DHT22;4359;49.358;11.256;2023-05-07T05:36:48;13.90;99.90
8643;DHT22;4359;49.358;11.256;2023-05-07T05:39:14;14.10;99.90
8643;DHT22;4359;49.358;11.256;2023-05-07T05:41:40;14.30;99.90
8643;DHT22;4359;49.358;11.256;2023-05-07T05:44:06;14.30;99.90
8643;DHT22;4359;49.358;11.256;2023-05-07T05:46:32;14.20;99.90
8643;DHT22;4359;49.358;11.256;2023-05-07T05:48:57;14.30;99.90
8643;DHT22;4359;49.358;11.256;2023-05-07T05:51:23;14.60;99.90
8643;DHT22;4359;49.358;11.256;2023-05-07T05:53:49;14.80;99.90
8643;DHT22;4359;49.358;11.256;2023-05-07T05:56:15;14.80;99.90
8643;DHT22;4359;49.358;11.256;2023-05-07T05:58:41;14.90;99.90
8643;DHT22;4359;49.358;11.256;2023-05-07T06:01:07;14.90;99.90
8643;DHT22;4359;49.358;11.256;2023-05-07T06:03:33;14.90;99.90
8643;DHT22;4359;49.358;11.256;2023-05-07T06:05:59;14.80;99.90
8643;DHT22;4359;49.358;11.256;2023-05-07T06:08:28;14.80;99.90
8643;DHT22;4359;49.358;11.256;2023-05-07T06:10:54;14.90;99.90
8643;DHT22;4359;49.358;11.256;2023-05-07T06:13:20;14.90;99.90
8643;DHT22;4359;49.358;11.256;2023-05-07T06:15:46;14.80;99.90
8643;DHT22;4359;49.358;11.256;2023-05-07T06:18:11;14.80;99.90
8643;DHT22;4359;49.358;11.256;2023-05-07T06:20:37;14.80;99.90
8643;DHT22;4359;49.358;11.256;2023-05-07T06:23:03;14.90;99.90
8643;DHT22;4359;49.358;11.256;2023-05-07T06:25:28;14.90;99.90
8643;DHT22;4359;49.358;11.256;2023-05-07T06:27:54;15.00;99.90
8643;DHT22;4359;49.358;11.256;2023-05-07T06:30:20;15.20;99.90
8643;DHT22;4359;49.358;11.256;2023-05-07T06:32:45;15.20;99.90
8643;DHT22;4359;49.358;11.256;2023-05-07T06:35:11;15.40;99.90
8643;DHT22;4359;49.358;11.256;2023-05-07T06:37:37;15.50;99.90
8643;DHT22;4359;49.358;11.256;2023-05-07T06:40:05;15.50;99.90
8643;DHT22;4359;49.358;11.256;2023-05-07T06:42:32;15.20;99.90
8643;DHT22;4359;49.358;11.256;2023-05-07T06:44:58;15.30;99.90
8643;DHT22;4359;49.358;11.256;2023-05-07T06:47:23;15.40;99.90
8643;DHT22;4359;49.358;11.256;2023-05-07T06:49:49;15.60;99.90
8643;DHT22;4359;49.358;11.256;2023-05-07T06:52:15;15.70;99.90
8643;DHT22;4359;49.358;11.256;2023-05-07T06:54:40;15.70;99.90
8643;DHT22;4359;49.358;11.256;2023-05-07T06:57:06;15.70;99.90
8643;DHT22;4359;49.358;11.256;2023-05-07T06:59:32;15.70;99.90
8643;DHT22;4359;49.358;11.256;2023-05-07T07:01:58;15.80;99.90
8643;DHT22;4359;49.358;11.256;2023-05-07T07:04:23;15.90;99.90
8643;DHT22;4359;49.358;11.256;2023-05-07T07:06:53;16.00;99.90
8643;DHT22;4359;49.358;11.256;2023-05-07T07:09:18;16.10;99.90
8643;DHT22;4359;49.358;11.256;2023-05-07T07:11:44;16.20;99.90
8643;DHT22;4359;49.358;11.256;2023-05-07T07:14:10;16.30;99.90
8643;DHT22;4359;49.358;11.256;2023-05-07T07:16:35;16.60;99.90
8643;DHT22;4359;49.358;11.256;2023-05-07T07:19:01;16.80;99.90
8643;DHT22;4359;49.358;11.256;2023-05-07T07:21:26;16.90;99.90
8643;DHT22;4359;49.358;11.256;2023-05-07T07:23:52;17.10;99.90
8643;DHT22;4359;49.358;11.256;2023-05-07T07:26:18;17.00;99.90
8643;DHT22;4359;49.358;11.256;2023-05-07T07:28:44;17.10;99.90
8643;DHT22;4359;49.358;11.256;2023-05-07T07:31:10;17.20;99.90
8643;DHT22;4359;49.358;11.256;2023-05-07T07:33:36;17.40;99.90
8643;DHT22;4359;49.358;11.256;2023-05-07T07:36:02;17.60;99.90
8643;DHT22;4359;49.358;11.256;2023-05-07T07:38:28;17.70;99.90
8643;DHT22;4359;49.358;11.256;2023-05-07T07:40:53;17.90;99.90
8643;DHT22;4359;49.358;11.256;2023-05-07T07:43:20;18.00;99.90
8643;DHT22;4359;49.358;11.256;2023-05-07T07:45:45;18.60;99.90
8643;DHT22;4359;49.358;11.256;2023-05-07T07:48:11;19.00;99.90
8643;DHT22;4359;49.358;11.256;2023-05-07T07:50:37;19.10;99.90
8643;DHT22;4359;49.358;11.256;2023-05-07T07:53:03;18.80;99.90
8643;DHT22;4359;49.358;11.256;2023-05-07T07:55:28;18.50;99.90
8643;DHT22;4359;49.358;11.256;2023-05-07T07:57:54;18.20;99.90
8643;DHT22;4359;49.358;11.256;2023-05-07T08:00:20;17.80;99.90
8643;DHT22;4359;49.358;11.256;2023-05-07T08:02:46;17.60;99.90
8643;DHT22;4359;49.358;11.256;2023-05-07T08:05:12;17.70;99.90
8643;DHT22;4359;49.358;11.256;2023-05-07T08:07:37;17.90;99.90
8643;DHT22;4359;49.358;11.256;2023-05-07T08:10:03;18.30;99.90
8643;DHT22;4359;49.358;11.256;2023-05-07T08:12:29;18.10;99.90
8643;DHT22;4359;49.358;11.256;2023-05-07T08:14:55;17.90;99.90
8643;DHT22;4359;49.358;11.256;2023-05-07T08:17:20;17.90;99.90
8643;DHT22;4359;49.358;11.256;2023-05-07T08:19:48;18.00;99.90
8643;DHT22;4359;49.358;11.256;2023-05-07T08:22:14;18.00;99.90
8643;DHT22;4359;49.358;11.256;2023-05-07T08:24:40;17.80;99.90
8643;DHT22;4359;49.358;11.256;2023-05-07T08:27:05;17.80;99.90
8643;DHT22;4359;49.358;11.256;2023-05-07T08:29:31;18.10;99.90
8643;DHT22;4359;49.358;11.256;2023-05-07T08:31:57;18.40;99.90
8643;DHT22;4359;49.358;11.256;2023-05-07T08:34:22;19.20;99.90
8643;DHT22;4359;49.358;11.256;2023-05-07T08:36:48;19.70;99.90
8643;DHT22;4359;49.358;11.256;2023-05-07T08:39:15;19.90;99.90
8643;DHT22;4359;49.358;11.256;2023-05-07T08:41:44;20.10;99.90
8643;DHT22;4359;49.358;11.256;2023-05-07T08:44:14;19.80;99.90
8643;DHT22;4359;49.358;11.256;2023-05-07T08:46:42;19.80;99.90
8643;DHT22;4359;49.358;11.256;2023-05-07T08:49:12;20.10;99.90
8643;DHT22;4359;49.358;11.256;2023-05-07T08:51:38;20.40;99.90
8643;DHT22;4359;49.358;11.256;2023-05-07T08:54:04;20.60;99.90
8643;DHT22;4359;49.358;11.256;2023-05-07T08:56:30;21.20;99.90
8643;DHT22;4359;49.358;11.256;2023-05-07T08:58:56;21.30;99.90
8643;DHT22;4359;49.358;11.256;2023-05-07T09:01:24;21.90;99.90
8643;DHT22;4359;49.358;11.256;2023-05-07T09:03:50;22.00;99.90
8643;DHT22;4359;49.358;11.256;2023-05-07T09:06:16;21.90;99.90
8643;DHT22;4359;49.358;11.256;2023-05-07T09:08:52;21.70;99.90
8643;DHT22;4359;49.358;11.256;2023-05-07T09:11:23;21.80;99.90
8643;DHT22;4359;49.358;11.256;2023-05-07T09:13:53;21.90;99.90
8643;DHT22;4359;49.358;11.256;2023-05-07T09:16:21;21.70;99.90
8643;DHT22;4359;49.358;11.256;2023-05-07T09:18:48;21.80;99.90
8643;DHT22;4359;49.358;11.256;2023-05-07T09:21:16;22.10;99.90
8643;DHT22;4359;49.358;11.256;2023-05-07T09:23:42;22.00;99.90
8643;DHT22;4359;49.358;11.256;2023-05-07T09:26:08;22.00;99.90
8643;DHT22;4359;49.358;11.256;2023-05-07T09:28:41;22.50;99.90
8643;DHT22;4359;49.358;11.256;2023-05-07T09:31:08;22.10;99.90
8643;DHT22;4359;49.358;11.256;2023-05-07T09:33:34;21.70;99.90
8643;DHT22;4359;49.358;11.256;2023-05-07T09:36:05;21.10;99.90
8643;DHT22;4359;49.358;11.256;2023-05-07T09:38:32;20.90;99.90
8643;DHT22;4359;49.358;11.256;2023-05-07T09:41:06;20.70;99.90
8643;DHT22;4359;49.358;11.256;2023-05-07T09:43:36;20.80;99.90
8643;DHT22;4359;49.358;11.256;2023-05-07T09:46:25;21.00;99.90
8643;DHT22;4359;49.358;11.256;2023-05-07T09:48:53;20.90;99.90
8643;DHT22;4359;49.358;11.256;2023-05-07T09:51:39;20.90;99.90
8643;DHT22;4359;49.358;11.256;2023-05-07T09:54:06;21.10;99.90
8643;DHT22;4359;49.358;11.256;2023-05-07T09:56:32;20.90;99.90
8643;DHT22;4359;49.358;11.256;2023-05-07T09:59:03;20.50;99.90
8643;DHT22;4359;49.358;11.256;2023-05-07T10:01:31;20.60;99.90
8643;DHT22;4359;49.358;11.256;2023-05-07T10:03:57;21.00;99.90
8643;DHT22;4359;49.358;11.256;2023-05-07T10:06:25;21.20;99.90
8643;DHT22;4359;49.358;11.256;2023-05-07T10:08:52;21.40;99.90
8643;DHT22;4359;49.358;11.256;2023-05-07T10:11:17;22.10;99.90
8643;DHT22;4359;49.358;11.256;2023-05-07T10:13:43;22.50;99.90
8643;DHT22;4359;49.358;11.256;2023-05-07T10:16:11;23.30;99.90
8643;DHT22;4359;49.358;11.256;2023-05-07T10:18:38;23.80;99.90
8643;DHT22;4359;49.358;11.256;2023-05-07T10:21:11;23.70;99.90
8643;DHT22;4359;49.358;11.256;2023-05-07T10:23:38;23.60;99.90
8643;DHT22;4359;49.358;11.256;2023-05-07T10:26:07;23.90;99.90
8643;DHT22;4359;49.358;11.256;2023-05-07T10:28:39;24.40;99.90
8643;DHT22;4359;49.358;11.256;2023-05-07T10:33:35;24.00;99.90
8643;DHT22;4359;49.358;11.256;2023-05-07T10:36:02;24.30;99.90
8643;DHT22;4359;49.358;11.256;2023-05-07T10:38:30;24.30;99.90
8643;DHT22;4359;49.358;11.256;2023-05-07T10:40:56;24.70;99.90
8643;DHT22;4359;49.358;11.256;2023-05-07T10:43:22;25.00;99.90
8643;DHT22;4359;49.358;11.256;2023-05-07T10:46:16;25.10;99.90
8643;DHT22;4359;49.358;11.256;2023-05-07T10:51:26;25.20;99.90
8643;DHT22;4359;49.358;11.256;2023-05-07T10:56:37;25.30;99.90
8643;DHT22;4359;49.358;11.256;2023-05-07T10:59:31;25.40;99.90
8643;DHT22;4359;49.358;11.256;2023-05-07T11:01:58;25.40;99.90
8643;DHT22;4359;49.358;11.256;2023-05-07T11:04:24;25.40;99.90
8643;DHT22;4359;49.358;11.256;2023-05-07T11:10:04;24.70;99.90
8643;DHT22;4359;49.358;11.256;2023-05-07T11:15:12;25.20;99.90
8643;DHT22;4359;49.358;11.256;2023-05-07T11:20:19;26.20;99.90
8643;DHT22;4359;49.358;11.256;2023-05-07T11:22:44;26.10;99.90
8643;DHT22;4359;49.358;11.256;2023-05-07T11:25:10;25.10;99.90
8643;DHT22;4359;49.358;11.256;2023-05-07T11:27:36;24.20;99.90
8643;DHT22;4359;49.358;11.256;2023-05-07T11:30:02;23.40;99.90
8643;DHT22;4359;49.358;11.256;2023-05-07T11:32:29;22.80;99.90
8643;DHT22;4359;49.358;11.256;2023-05-07T11:34:57;22.60;99.90
8643;DHT22;4359;49.358;11.256;2023-05-07T11:37:24;22.40;99.90
8643;DHT22;4359;49.358;11.256;2023-05-07T11:39:51;22.20;99.90
8643;DHT22;4359;49.358;11.256;2023-05-07T11:42:33;22.20;99.90
8643;DHT22;4359;49.358;11.256;2023-05-07T11:44:59;22.00;99.90
8643;DHT22;4359;49.358;11.256;2023-05-07T11:47:25;22.30;99.90
8643;DHT22;4359;49.358;11.256;2023-05-07T11:49:52;23.20;99.90
8643;DHT22;4359;49.358;11.256;2023-05-07T11:52:20;24.00;99.90
8643;DHT22;4359;49.358;11.256;2023-05-07T11:54:53;24.30;99.90
8643;DHT22;4359;49.358;11.256;2023-05-07T11:57:20;25.00;99.90
8643;DHT22;4359;49.358;11.256;2023-05-07T11:59:46;25.50;99.90
8643;DHT22;4359;49.358;11.256;2023-05-07T12:02:17;25.70;99.90
8643;DHT22;4359;49.358;11.256;2023-05-07T12:04:44;25.20;99.90
8643;DHT22;4359;49.358;11.256;2023-05-07T12:07:13;23.90;99.90
8643;DHT22;4359;49.358;11.256;2023-05-07T12:09:40;23.30;99.90
8643;DHT22;4359;49.358;11.256;2023-05-07T12:12:06;23.40;99.90
8643;DHT22;4359;49.358;11.256;2023-05-07T12:14:32;24.10;99.90
8643;DHT22;4359;49.358;11.256;2023-05-07T12:16:59;25.00;99.90
8643;DHT22;4359;49.358;11.256;2023-05-07T12:19:29;25.70;99.90
8643;DHT22;4359;49.358;11.256;2023-05-07T12:21:55;25.50;99.90
8643;DHT22;4359;49.358;11.256;2023-05-07T12:24:21;25.00;99.90
8643;DHT22;4359;49.358;11.256;2023-05-07T12:26:48;24.50;99.90
8643;DHT22;4359;49.358;11.256;2023-05-07T12:29:14;24.70;99.90
8643;DHT22;4359;49.358;11.256;2023-05-07T12:31:42;25.20;99.90
8643;DHT22;4359;49.358;11.256;2023-05-07T12:34:11;25.80;99.90
8643;DHT22;4359;49.358;11.256;2023-05-07T12:36:37;26.00;99.90
8643;DHT22;4359;49.358;11.256;2023-05-07T12:39:07;26.30;99.90
8643;DHT22;4359;49.358;11.256;2023-05-07T12:44:22;26.00;99.90
8643;DHT22;4359;49.358;11.256;2023-05-07T12:46:48;26.20;99.90
8643;DHT22;4359;49.358;11.256;2023-05-07T12:49:14;26.40;99.90
8643;DHT22;4359;49.358;11.256;2023-05-07T12:51:40;26.60;97.80
8643;DHT22;4359;49.358;11.256;2023-05-07T12:54:05;26.70;99.40
8643;DHT22;4359;49.358;11.256;2023-05-07T12:56:31;27.00;96.80
8643;DHT22;4359;49.358;11.256;2023-05-07T12:58:57;26.10;97.90
8643;DHT22;4359;49.358;11.256;2023-05-07T13:01:29;25.10;99.90
8643;DHT22;4359;49.358;11.256;2023-05-07T13:03:56;24.70;99.90
8643;DHT22;4359;49.358;11.256;2023-05-07T13:06:25;24.30;99.90
8643;DHT22;4359;49.358;11.256;2023-05-07T13:08:51;24.20;99.90
8643;DHT22;4359;49.358;11.256;2023-05-07T13:11:17;23.90;99.30
8643;DHT22;4359;49.358;11.256;2023-05-07T13:13:42;23.90;99.90
8643;DHT22;4359;49.358;11.256;2023-05-07T13:16:10;23.90;98.90
8643;DHT22;4359;49.358;11.256;2023-05-07T13:18:37;23.90;99.90
8643;DHT22;4359;49.358;11.256;2023-05-07T13:21:03;24.20;99.90
8643;DHT22;4359;49.358;11.256;2023-05-07T13:23:29;24.10;99.20
8643;DHT22;4359;49.358;11.256;2023-05-07T13:25:55;24.30;99.40
8643;DHT22;4359;49.358;11.256;2023-05-07T13:28:23;24.30;99.90
8643;DHT22;4359;49.358;11.256;2023-05-07T13:30:49;24.60;99.90
8643;DHT22;4359;49.358;11.256;2023-05-07T13:33:15;24.50;99.90
8643;DHT22;4359;49.358;11.256;2023-05-07T13:35:44;23.90;99.90
8643;DHT22;4359;49.358;11.256;2023-05-07T13:38:09;23.60;99.90
8643;DHT22;4359;49.358;11.256;2023-05-07T13:40:35;23.30;99.90
8643;DHT22;4359;49.358;11.256;2023-05-07T13:43:01;23.20;99.90
8643;DHT22;4359;49.358;11.256;2023-05-07T13:45:30;23.30;99.90
8643;DHT22;4359;49.358;11.256;2023-05-07T13:47:56;23.80;99.90
8643;DHT22;4359;49.358;11.256;2023-05-07T13:50:22;23.70;99.90
8643;DHT22;4359;49.358;11.256;2023-05-07T13:52:48;23.90;99.90
8643;DHT22;4359;49.358;11.256;2023-05-07T13:55:18;24.70;99.90
8643;DHT22;4359;49.358;11.256;2023-05-07T13:57:44;25.30;99.90
8643;DHT22;4359;49.358;11.256;2023-05-07T14:00:10;25.40;99.90
8643;DHT22;4359;49.358;11.256;2023-05-07T14:02:36;25.10;99.90
8643;DHT22;4359;49.358;11.256;2023-05-07T14:05:01;25.20;99.90
8643;DHT22;4359;49.358;11.256;2023-05-07T14:07:27;25.00;99.90
8643;DHT22;4359;49.358;11.256;2023-05-07T14:09:54;24.90;99.90
8643;DHT22;4359;49.358;11.256;2023-05-07T14:12:19;24.80;99.90
8643;DHT22;4359;49.358;11.256;2023-05-07T14:14:45;25.50;99.80
8643;DHT22;4359;49.358;11.256;2023-05-07T14:17:12;26.20;99.10
8643;DHT22;4359;49.358;11.256;2023-05-07T14:19:38;26.60;99.90
8643;DHT22;4359;49.358;11.256;2023-05-07T14:22:03;26.40;99.60
8643;DHT22;4359;49.358;11.256;2023-05-07T14:24:29;25.50;99.90
8643;DHT22;4359;49.358;11.256;2023-05-07T14:26:54;24.50;99.90
8643;DHT22;4359;49.358;11.256;2023-05-07T14:29:20;23.90;99.90
8643;DHT22;4359;49.358;11.256;2023-05-07T14:31:46;23.80;99.90
8643;DHT22;4359;49.358;11.256;2023-05-07T14:34:11;23.40;99.90
8643;DHT22;4359;49.358;11.256;2023-05-07T14:36:37;23.30;99.90
8643;DHT22;4359;49.358;11.256;2023-05-07T14:39:03;23.00;99.90
8643;DHT22;4359;49.358;11.256;2023-05-07T14:41:29;22.90;99.90
8643;DHT22;4359;49.358;11.256;2023-05-07T14:43:55;22.70;99.90
8643;DHT22;4359;49.358;11.256;2023-05-07T14:46:20;22.40;99.90
8643;DHT22;4359;49.358;11.256;2023-05-07T14:48:46;22.20;99.90
8643;DHT22;4359;49.358;11.256;2023-05-07T14:51:12;22.10;99.90
8643;DHT22;4359;49.358;11.256;2023-05-07T14:53:38;22.20;99.90
8643;DHT22;4359;49.358;11.256;2023-05-07T14:56:04;22.10;99.90
8643;DHT22;4359;49.358;11.256;2023-05-07T14:58:31;21.90;99.90
8643;DHT22;4359;49.358;11.256;2023-05-07T15:00:56;21.90;99.90
8643;DHT22;4359;49.358;11.256;2023-05-07T15:03:22;22.10;99.90
8643;DHT22;4359;49.358;11.256;2023-05-07T15:05:48;22.00;99.90
8643;DHT22;4359;49.358;11.256;2023-05-07T15:08:17;22.20;99.90
8643;DHT22;4359;49.358;11.256;2023-05-07T15:10:42;22.20;99.90
8643;DHT22;4359;49.358;11.256;2023-05-07T15:13:09;22.30;99.90
8643;DHT22;4359;49.358;11.256;2023-05-07T15:15:35;22.20;99.90
8643;DHT22;4359;49.358;11.256;2023-05-07T15:18:02;22.30;99.90
8643;DHT22;4359;49.358;11.256;2023-05-07T15:20:28;22.30;99.90
8643;DHT22;4359;49.358;11.256;2023-05-07T15:22:54;22.20;99.90
8643;DHT22;4359;49.358;11.256;2023-05-07T15:25:19;22.30;99.90
8643;DHT22;4359;49.358;11.256;2023-05-07T15:27:46;22.80;99.90
8643;DHT22;4359;49.358;11.256;2023-05-07T15:30:12;22.90;99.90
8643;DHT22;4359;49.358;11.256;2023-05-07T15:32:38;22.90;99.90
8643;DHT22;4359;49.358;11.256;2023-05-07T15:35:04;22.70;99.90
8643;DHT22;4359;49.358;11.256;2023-05-07T15:37:31;22.60;99.90
8643;DHT22;4359;49.358;11.256;2023-05-07T15:39:56;22.40;99.90
8643;DHT22;4359;49.358;11.256;2023-05-07T15:42:22;22.20;99.90
8643;DHT22;4359;49.358;11.256;2023-05-07T15:44:48;22.20;99.90
8643;DHT22;4359;49.358;11.256;2023-05-07T15:47:14;22.30;99.90
8643;DHT22;4359;49.358;11.256;2023-05-07T15:49:43;22.40;99.90
8643;DHT22;4359;49.358;11.256;2023-05-07T15:52:08;22.60;99.90
8643;DHT22;4359;49.358;11.256;2023-05-07T15:54:39;22.60;99.90
8643;DHT22;4359;49.358;11.256;2023-05-07T15:57:05;22.50;99.90
8643;DHT22;4359;49.358;11.256;2023-05-07T15:59:32;22.30;99.90
8643;DHT22;4359;49.358;11.256;2023-05-07T16:01:58;22.40;99.90